Time;durP1;ratioP1;P1;durP2;ratioP2;P2;SDS_P1;SDS_P2;PMS_P1;PMS_P2;Temp;Humidity;BMP_temperature;BMP_pressure;BME280_temperature;BME280_humidity;BME280_pressure;Samples;Min_cycle;Max_cycle;Signal;HPM_P1;HPM_P2
2023/03/08 00:00:33;;;;;;;2.10;1.48;;;2.00;99.90;;;;;;5095321;28;20177;-73
2023/03/08 00:02:59;;;;;;;3.08;2.35;;;1.90;99.90;;;;;;5107618;28;20280;-74
2023/03/08 00:05:25;;;;;;;6.40;1.80;;;1.90;99.90;;;;;;5077821;28;20192;-78
2023/03/08 00:07:54;;;;;;;2.72;1.55;;;1.90;99.90;;;;;;5109842;28;20204;-74
2023/03/08 00:10:21;;;;;;;5.20;1.52;;;1.90;99.90;;;;;;5113518;28;20177;-74
2023/03/08 00:12:46;;;;;;;4.75;1.70;;;1.90;99.90;;;;;;5095313;27;20464;-74
2023/03/08 00:15:12;;;;;;;4.85;1.75;;;1.90;99.90;;;;;;5109290;28;20192;-73
2023/03/08 00:17:39;;;;;;;4.07;1.52;;;1.90;99.90;;;;;;5071270;28;20866;-73
2023/03/08 00:20:07;;;;;;;5.32;1.70;;;2.00;99.90;;;;;;5114401;27;20168;-73
2023/03/08 00:22:40;;;;;;;4.70;2.03;;;1.90;99.90;;;;;;5120292;27;20181;-73
2023/03/08 00:25:07;;;;;;;5.07;2.30;;;1.90;99.90;;;;;;5113119;28;20268;-73
2023/03/08 00:27:34;;;;;;;4.82;2.17;;;1.90;99.90;;;;;;5110819;28;20189;-73
2023/03/08 00:30:04;;;;;;;6.15;2.20;;;1.90;99.90;;;;;;5115814;27;20180;-75
2023/03/08 00:32:31;;;;;;;4.97;2.08;;;1.90;99.90;;;;;;5111599;28;20176;-76
2023/03/08 00:34:57;;;;;;;13.98;2.45;;;1.90;99.90;;;;;;5115475;27;20290;-73
2023/03/08 00:37:23;;;;;;;6.70;2.10;;;1.90;99.90;;;;;;5103953;28;20264;-75
2023/03/08 00:39:52;;;;;;;8.73;2.25;;;1.90;99.90;;;;;;5112452;27;20647;-73
2023/03/08 00:42:21;;;;;;;4.88;1.90;;;1.90;99.90;;;;;;5106747;28;20716;-73
2023/03/08 00:44:47;;;;;;;5.40;1.67;;;1.90;99.90;;;;;;5074405;28;20557;-73
2023/03/08 00:47:14;;;;;;;3.10;1.58;;;1.90;99.90;;;;;;5098740;28;20228;-74
2023/03/08 00:49:42;;;;;;;2.83;1.63;;;1.80;99.90;;;;;;5124422;28;20189;-73
2023/03/08 00:52:08;;;;;;;4.85;1.60;;;1.80;99.90;;;;;;5094325;28;20272;-72
2023/03/08 00:54:36;;;;;;;5.80;1.70;;;1.80;99.90;;;;;;5115335;28;20284;-73
2023/03/08 00:57:02;;;;;;;4.78;1.80;;;1.80;99.90;;;;;;5094483;28;20690;-74
2023/03/08 00:59:31;;;;;;;6.85;1.65;;;1.80;99.90;;;;;;5109778;28;20199;-73
2023/03/08 01:01:57;;;;;;;3.42;1.20;;;1.80;99.90;;;;;;5094530;28;20214;-74
2023/03/08 01:04:23;;;;;;;6.18;1.60;;;1.70;99.90;;;;;;5099425;28;20220;-73
2023/03/08 01:06:50;;;;;;;3.70;1.73;;;1.70;99.90;;;;;;5105155;28;20227;-73
2023/03/08 01:09:16;;;;;;;2.80;1.80;;;1.70;99.90;;;;;;5077804;28;20181;-73
2023/03/08 01:11:43;;;;;;;5.38;1.83;;;1.70;99.90;;;;;;5091259;28;20687;-73
2023/03/08 01:14:09;;;;;;;6.15;2.00;;;1.70;99.90;;;;;;5106434;28;20188;-77
2023/03/08 01:16:35;;;;;;;4.55;1.60;;;1.70;99.90;;;;;;5095251;28;20182;-74
2023/03/08 01:19:04;;;;;;;4.65;1.55;;;1.70;99.90;;;;;;5118222;28;20189;-73
2023/03/08 01:21:30;;;;;;;3.45;1.60;;;1.60;99.90;;;;;;5131709;28;20260;-74
2023/03/08 01:23:56;;;;;;;6.75;1.70;;;1.60;99.90;;;;;;5123061;28;20192;-75
2023/03/08 01:26:29;;;;;;;7.90;1.50;;;1.60;99.90;;;;;;5133418;28;20208;-73
2023/03/08 01:29:14;;;;;;;4.05;1.85;;;1.60;99.90;;;;;;5100608;28;20197;-74
2023/03/08 01:31:58;;;;;;;4.40;1.92;;;1.60;99.90;;;;;;5095193;28;20241;-72
2023/03/08 01:34:42;;;;;;;4.82;1.70;;;1.50;99.90;;;;;;5080115;28;20659;-75
2023/03/08 01:37:17;;;;;;;3.35;1.70;;;1.50;99.90;;;;;;5077813;28;20181;-72
2023/03/08 01:39:44;;;;;;;4.95;1.40;;;1.50;99.90;;;;;;5091465;28;20185;-73
2023/03/08 01:42:10;;;;;;;6.38;1.58;;;1.50;99.90;;;;;;5101477;27;20184;-73
2023/03/08 01:45:27;;;;;;;3.67;1.60;;;1.50;99.90;;;;;;5116084;27;20227;-73
2023/03/08 01:47:53;;;;;;;4.88;1.50;;;1.40;99.90;;;;;;5066164;27;20195;-72
2023/03/08 01:50:24;;;;;;;2.13;1.20;;;1.40;99.90;;;;;;5115442;27;20214;-73
2023/03/08 01:52:53;;;;;;;3.92;1.58;;;1.40;99.90;;;;;;5078870;27;20238;-75
2023/03/08 01:55:19;;;;;;;5.35;1.30;;;1.40;99.90;;;;;;5097791;28;20227;-74
2023/03/08 01:57:53;;;;;;;4.35;1.13;;;1.40;99.90;;;;;;5097872;27;20204;-75
2023/03/08 02:00:21;;;;;;;4.22;1.45;;;1.40;99.90;;;;;;5101791;28;20169;-73
2023/03/08 02:02:51;;;;;;;5.38;1.30;;;1.40;99.90;;;;;;5095576;28;20173;-75
2023/03/08 02:05:18;;;;;;;2.72;1.25;;;1.40;99.90;;;;;;5080453;28;20213;-73
2023/03/08 02:07:47;;;;;;;6.20;1.55;;;1.40;99.90;;;;;;5104823;27;20185;-73
2023/03/08 02:10:14;;;;;;;6.05;1.42;;;1.40;99.90;;;;;;5099511;27;20652;-73
2023/03/08 02:12:40;;;;;;;1.35;1.00;;;1.40;99.90;;;;;;5114927;27;20241;-74
2023/03/08 02:15:10;;;;;;;6.10;1.25;;;1.40;99.90;;;;;;5098165;28;20196;-74
2023/03/08 02:17:38;;;;;;;1.50;0.98;;;1.40;99.90;;;;;;5112875;28;20184;-73
2023/03/08 02:20:28;;;;;;;3.88;1.23;;;1.40;99.90;;;;;;5095368;28;20700;-72
2023/03/08 02:22:54;;;;;;;3.25;1.02;;;1.40;99.90;;;;;;5082648;27;20180;-74
2023/03/08 02:25:22;;;;;;;4.35;1.40;;;1.30;99.90;;;;;;5120561;27;20213;-74
2023/03/08 02:27:50;;;;;;;7.90;1.30;;;1.40;99.90;;;;;;5097887;28;20190;-73
2023/03/08 02:30:23;;;;;;;5.10;1.30;;;1.30;99.90;;;;;;5097463;28;20621;-73
2023/03/08 02:32:49;;;;;;;2.72;1.00;;;1.30;99.90;;;;;;5113538;28;20181;-72
2023/03/08 02:35:15;;;;;;;3.20;0.98;;;1.30;99.90;;;;;;5095328;28;20530;-73
2023/03/08 02:37:40;;;;;;;2.63;1.08;;;1.30;99.90;;;;;;5114015;27;20756;-73
2023/03/08 02:40:07;;;;;;;1.25;0.90;;;1.30;99.90;;;;;;5117532;27;20617;-73
2023/03/08 02:42:33;;;;;;;4.13;1.02;;;1.30;99.90;;;;;;5101802;28;20173;-73
2023/03/08 02:44:58;;;;;;;5.90;1.30;;;1.30;99.90;;;;;;5113743;28;20228;-75
2023/03/08 02:47:24;;;;;;;4.88;1.27;;;1.30;99.90;;;;;;5114118;28;20177;-77
2023/03/08 02:49:50;;;;;;;5.55;1.33;;;1.30;99.90;;;;;;5095305;28;20189;-72
2023/03/08 02:52:16;;;;;;;2.45;1.00;;;1.30;99.90;;;;;;5080701;28;20181;-74
2023/03/08 02:54:42;;;;;;;3.85;1.10;;;1.40;99.90;;;;;;5114644;27;20636;-72
2023/03/08 02:57:07;;;;;;;5.28;1.30;;;1.30;99.90;;;;;;5102473;28;20572;-72
2023/03/08 02:59:35;;;;;;;1.63;1.30;;;1.30;99.90;;;;;;5078420;28;20239;-73
2023/03/08 03:02:02;;;;;;;3.58;1.85;;;1.30;99.90;;;;;;5099896;27;20181;-73
2023/03/08 03:04:32;;;;;;;6.70;1.30;;;1.30;99.90;;;;;;5083430;28;20209;-75
2023/03/08 03:06:59;;;;;;;2.70;1.38;;;1.20;99.90;;;;;;5103745;28;20191;-73
2023/03/08 03:09:26;;;;;;;5.88;1.60;;;1.30;99.90;;;;;;5095243;27;20173;-73
2023/03/08 03:11:52;;;;;;;2.75;1.10;;;1.30;99.90;;;;;;5095897;28;20181;-73
2023/03/08 03:14:18;;;;;;;2.72;1.23;;;1.30;99.90;;;;;;5113414;28;20198;-74
2023/03/08 03:16:45;;;;;;;1.42;1.08;;;1.30;99.90;;;;;;5094405;28;20239;-72
2023/03/08 03:19:12;;;;;;;3.83;1.20;;;1.30;99.90;;;;;;5077817;28;20181;-72
2023/03/08 03:21:39;;;;;;;7.28;1.75;;;1.20;99.90;;;;;;5095190;28;20189;-75
2023/03/08 03:24:06;;;;;;;3.03;1.30;;;1.30;99.90;;;;;;5095320;28;20314;-72
2023/03/08 03:26:40;;;;;;;3.10;1.20;;;1.30;99.90;;;;;;5096648;28;20207;-73
2023/03/08 03:29:06;;;;;;;3.00;1.25;;;1.30;99.90;;;;;;5126485;27;20659;-73
2023/03/08 03:31:35;;;;;;;5.43;1.30;;;1.30;99.90;;;;;;5108497;28;20672;-74
2023/03/08 03:34:01;;;;;;;2.90;1.17;;;1.20;99.90;;;;;;5099976;28;20186;-74
2023/03/08 03:36:27;;;;;;;4.95;1.45;;;1.30;99.90;;;;;;5096996;28;20189;-74
2023/03/08 03:38:53;;;;;;;3.92;1.30;;;1.20;99.90;;;;;;5079054;28;20234;-74
2023/03/08 03:41:21;;;;;;;3.95;1.20;;;1.20;99.90;;;;;;5115038;28;20338;-74
2023/03/08 03:43:50;;;;;;;5.00;1.48;;;1.20;99.90;;;;;;5087206;28;20193;-74
2023/03/08 03:46:19;;;;;;;4.70;1.27;;;1.20;99.90;;;;;;5121240;27;20236;-76
2023/03/08 03:48:47;;;;;;;4.72;1.50;;;1.20;99.90;;;;;;5102470;28;20189;-73
2023/03/08 03:51:18;;;;;;;3.65;1.58;;;1.20;99.90;;;;;;5078226;27;20249;-74
2023/03/08 03:53:48;;;;;;;4.47;1.48;;;1.20;99.90;;;;;;5079147;28;20247;-74
2023/03/08 03:56:18;;;;;;;4.80;1.45;;;1.20;99.90;;;;;;5079239;28;20193;-74
2023/03/08 03:58:45;;;;;;;6.13;1.30;;;1.20;99.90;;;;;;5092750;28;20280;-74
2023/03/08 04:01:23;;;;;;;4.45;1.33;;;1.20;99.90;;;;;;5095723;28;20176;-77
2023/03/08 04:03:50;;;;;;;3.75;1.38;;;1.20;99.90;;;;;;5097857;28;20185;-75
2023/03/08 04:06:26;;;;;;;4.38;1.00;;;1.20;99.90;;;;;;5095675;28;20254;-74
2023/03/08 04:08:54;;;;;;;2.05;1.33;;;1.20;99.90;;;;;;5094500;28;20211;-73
2023/03/08 04:11:22;;;;;;;3.75;1.33;;;1.20;99.90;;;;;;5095716;28;20169;-74
2023/03/08 04:13:48;;;;;;;7.55;1.35;;;1.20;99.90;;;;;;5093602;28;20270;-73
2023/03/08 04:16:21;;;;;;;3.50;1.25;;;1.10;99.90;;;;;;5075557;28;20279;-73
2023/03/08 04:18:51;;;;;;;3.83;1.05;;;1.20;99.90;;;;;;5113126;27;20184;-77
2023/03/08 04:21:18;;;;;;;5.70;1.45;;;1.20;99.90;;;;;;5085262;28;20633;-75
2023/03/08 04:23:43;;;;;;;3.22;1.20;;;1.10;99.90;;;;;;5116230;27;20214;-73
2023/03/08 04:26:09;;;;;;;2.75;1.00;;;1.10;99.90;;;;;;5116106;27;20298;-73
2023/03/08 04:28:36;;;;;;;9.48;1.40;;;1.10;99.90;;;;;;5115821;27;20739;-73
2023/03/08 04:31:26;;;;;;;2.60;1.10;;;1.10;99.90;;;;;;5100965;28;20327;-74
2023/03/08 04:33:54;;;;;;;3.72;1.40;;;1.10;99.90;;;;;;5108825;27;20192;-73
2023/03/08 04:36:21;;;;;;;1.95;1.30;;;1.10;99.90;;;;;;5094531;28;20205;-73
2023/03/08 04:38:48;;;;;;;3.40;1.15;;;1.20;99.90;;;;;;5078586;28;20220;-73
2023/03/08 04:41:16;;;;;;;4.97;1.20;;;1.10;99.90;;;;;;5080400;28;20193;-73
2023/03/08 04:43:55;;;;;;;3.75;1.48;;;1.20;99.90;;;;;;5097763;28;20186;-74
2023/03/08 04:46:28;;;;;;;2.67;1.17;;;1.20;99.90;;;;;;5115412;28;20227;-74
2023/03/08 04:48:55;;;;;;;4.13;1.20;;;1.10;99.90;;;;;;5116154;28;20199;-74
2023/03/08 04:51:24;;;;;;;1.77;0.90;;;1.10;99.90;;;;;;5091561;28;20185;-74
2023/03/08 04:53:52;;;;;;;6.07;0.98;;;1.20;99.90;;;;;;5105108;28;20582;-74
2023/03/08 04:56:18;;;;;;;2.78;1.15;;;1.10;99.90;;;;;;5115319;28;20267;-74
2023/03/08 04:58:45;;;;;;;2.97;1.00;;;1.10;99.90;;;;;;5102591;28;20529;-74
2023/03/08 05:01:15;;;;;;;3.25;1.17;;;1.10;99.90;;;;;;5092488;28;20226;-74
2023/03/08 05:03:42;;;;;;;1.98;1.10;;;1.10;99.90;;;;;;5094686;28;20181;-74
2023/03/08 05:06:10;;;;;;;3.53;1.20;;;1.10;99.90;;;;;;5089693;28;20573;-73
2023/03/08 05:08:36;;;;;;;4.47;1.05;;;1.10;99.90;;;;;;5116515;27;20383;-73
2023/03/08 05:11:04;;;;;;;2.67;1.35;;;1.10;99.90;;;;;;5111577;28;20185;-74
2023/03/08 05:13:35;;;;;;;5.82;1.30;;;1.10;99.90;;;;;;5080755;28;20259;-73
2023/03/08 05:16:02;;;;;;;2.65;1.05;;;1.00;99.90;;;;;;5122899;27;20188;-73
2023/03/08 05:18:28;;;;;;;3.35;1.20;;;1.00;99.90;;;;;;5090820;28;20173;-74
2023/03/08 05:20:57;;;;;;;3.30;1.00;;;1.10;99.90;;;;;;5096465;28;20170;-74
2023/03/08 05:23:25;;;;;;;2.80;1.00;;;1.10;99.90;;;;;;5092370;28;20544;-73
2023/03/08 05:25:57;;;;;;;1.38;0.88;;;1.10;99.90;;;;;;5098347;28;20226;-74
2023/03/08 05:28:27;;;;;;;2.42;0.90;;;1.10;99.90;;;;;;5104995;27;20548;-75
2023/03/08 05:31:00;;;;;;;3.05;1.30;;;1.10;99.90;;;;;;5103309;28;20529;-73
2023/03/08 05:33:26;;;;;;;0.82;0.82;;;1.10;99.90;;;;;;5103173;27;20584;-73
2023/03/08 05:35:56;;;;;;;2.25;1.00;;;1.10;99.90;;;;;;5083714;28;20182;-73
2023/03/08 05:38:24;;;;;;;2.35;1.00;;;1.10;99.90;;;;;;5085612;28;20174;-73
2023/03/08 05:40:51;;;;;;;3.35;0.85;;;1.10;99.90;;;;;;5080317;28;20254;-73
2023/03/08 05:43:17;;;;;;;3.85;1.10;;;1.10;99.90;;;;;;5100383;27;20592;-73
2023/03/08 05:45:58;;;;;;;3.75;1.00;;;1.10;99.90;;;;;;5101638;27;20242;-73
2023/03/08 05:48:25;;;;;;;5.95;1.15;;;1.10;99.90;;;;;;5107883;28;20177;-77
2023/03/08 05:50:52;;;;;;;4.15;1.20;;;1.20;99.90;;;;;;5097086;28;20180;-72
2023/03/08 05:53:19;;;;;;;3.58;1.25;;;1.10;99.90;;;;;;5115181;27;20221;-75
2023/03/08 05:55:45;;;;;;;3.65;1.30;;;1.20;99.90;;;;;;5116131;28;20284;-73
2023/03/08 05:58:11;;;;;;;3.60;1.20;;;1.10;99.90;;;;;;5102527;27;20187;-74
2023/03/08 06:00:37;;;;;;;4.90;1.40;;;1.20;99.90;;;;;;5095053;28;20271;-75
2023/03/08 06:03:03;;;;;;;2.85;1.40;;;1.10;99.90;;;;;;5083181;27;20185;-74
2023/03/08 06:05:31;;;;;;;7.53;1.67;;;1.10;99.90;;;;;;5097708;28;20205;-73
2023/03/08 06:07:58;;;;;;;2.13;1.27;;;1.10;99.90;;;;;;5116346;27;20189;-73
2023/03/08 06:10:24;;;;;;;7.05;1.60;;;1.10;99.90;;;;;;5109974;28;20181;-81
2023/03/08 06:12:51;;;;;;;6.32;1.50;;;1.10;99.90;;;;;;5097618;27;20294;-73
2023/03/08 06:15:19;;;;;;;2.55;1.48;;;1.10;99.90;;;;;;5110586;28;20189;-73
2023/03/08 06:17:44;;;;;;;4.70;1.50;;;1.00;99.90;;;;;;5097227;27;20213;-74
2023/03/08 06:20:15;;;;;;;4.50;1.40;;;1.10;99.90;;;;;;5097158;28;20269;-74
2023/03/08 06:22:44;;;;;;;3.38;1.45;;;1.00;99.90;;;;;;5112111;28;20186;-73
2023/03/08 06:25:10;;;;;;;6.80;1.50;;;1.00;99.90;;;;;;5088940;28;20217;-73
2023/03/08 06:27:37;;;;;;;5.78;1.30;;;1.00;99.90;;;;;;5082217;27;20217;-73
2023/03/08 06:30:11;;;;;;;1.70;1.10;;;1.00;99.90;;;;;;5117834;27;20214;-73
2023/03/08 06:32:37;;;;;;;4.72;1.50;;;1.00;99.90;;;;;;5100081;27;20904;-74
2023/03/08 06:35:04;;;;;;;3.63;1.20;;;0.90;99.90;;;;;;5100701;27;20172;-75
2023/03/08 06:37:33;;;;;;;7.22;1.60;;;0.90;99.90;;;;;;5113548;27;20183;-74
2023/03/08 06:40:00;;;;;;;4.80;1.38;;;0.90;99.90;;;;;;5113269;28;20181;-73
2023/03/08 06:42:28;;;;;;;3.10;1.67;;;0.90;99.90;;;;;;5080561;28;20179;-74
2023/03/08 06:44:54;;;;;;;8.02;1.80;;;1.00;99.90;;;;;;5096649;28;20568;-74
2023/03/08 06:47:19;;;;;;;4.78;1.40;;;0.90;99.90;;;;;;5079650;28;20628;-80
2023/03/08 06:49:45;;;;;;;3.42;1.70;;;0.90;99.90;;;;;;5075723;28;20629;-75
2023/03/08 06:52:11;;;;;;;3.72;1.75;;;1.00;99.90;;;;;;5080224;28;20205;-74
2023/03/08 06:54:37;;;;;;;5.68;1.75;;;1.00;99.90;;;;;;5114007;27;20185;-75
2023/03/08 06:57:03;;;;;;;5.20;1.50;;;1.10;99.90;;;;;;5096721;28;20177;-74
2023/03/08 06:59:29;;;;;;;4.10;1.70;;;1.10;99.90;;;;;;5077656;28;20205;-72
2023/03/08 07:01:55;;;;;;;6.22;1.60;;;1.10;99.90;;;;;;5130132;27;20614;-73
2023/03/08 07:04:21;;;;;;;4.90;2.00;;;1.10;99.90;;;;;;5115492;27;20231;-75
2023/03/08 07:06:46;;;;;;;4.72;1.95;;;1.20;99.90;;;;;;5075657;28;20212;-73
2023/03/08 07:09:12;;;;;;;4.05;1.60;;;1.20;99.90;;;;;;5105786;27;20196;-73
2023/03/08 07:11:38;;;;;;;4.03;1.85;;;1.20;99.90;;;;;;5116986;27;20196;-74
2023/03/08 07:14:04;;;;;;;5.57;1.88;;;1.30;99.90;;;;;;5083883;28;20185;-74
2023/03/08 07:16:30;;;;;;;4.72;2.20;;;1.30;99.90;;;;;;5125427;27;20191;-73
2023/03/08 07:18:56;;;;;;;4.15;2.13;;;1.40;99.90;;;;;;5118259;27;20255;-73
2023/03/08 07:21:23;;;;;;;7.20;2.58;;;1.40;99.90;;;;;;5112108;28;20177;-75
2023/03/08 07:23:52;;;;;;;3.83;2.40;;;1.40;99.90;;;;;;5113890;27;20199;-74
2023/03/08 07:26:17;;;;;;;4.63;2.38;;;1.50;99.90;;;;;;5135109;27;20204;-77
2023/03/08 07:28:46;;;;;;;5.55;2.38;;;1.50;99.90;;;;;;5099942;28;20200;-74
2023/03/08 07:31:12;;;;;;;3.95;2.70;;;1.40;99.90;;;;;;5091505;28;20246;-80
2023/03/08 07:33:38;;;;;;;6.70;2.90;;;1.50;99.90;;;;;;5092508;28;20922;-75
2023/03/08 07:36:04;;;;;;;9.00;3.20;;;1.50;99.90;;;;;;5126243;27;20207;-73
2023/03/08 07:38:30;;;;;;;5.75;3.20;;;1.50;99.90;;;;;;5109352;27;20180;-73
2023/03/08 07:40:56;;;;;;;10.55;4.00;;;1.50;99.90;;;;;;5099610;28;20192;-78
2023/03/08 07:43:22;;;;;;;7.28;3.83;;;1.60;99.90;;;;;;5087907;28;20196;-74
2023/03/08 07:46:01;;;;;;;10.00;4.00;;;1.60;99.90;;;;;;5117465;27;20242;-74
2023/03/08 07:48:28;;;;;;;7.93;4.03;;;1.60;99.90;;;;;;5113676;27;20619;-74
2023/03/08 07:50:54;;;;;;;6.60;4.13;;;1.60;99.90;;;;;;5131427;27;20670;-75
2023/03/08 07:53:20;;;;;;;6.57;4.00;;;1.70;99.90;;;;;;5079725;28;20178;-78
2023/03/08 07:55:46;;;;;;;7.60;4.05;;;1.70;99.90;;;;;;5113178;28;20180;-73
2023/03/08 07:58:12;;;;;;;8.88;3.70;;;1.80;99.90;;;;;;5092997;28;20182;-87
2023/03/08 08:00:38;;;;;;;13.98;3.63;;;1.90;99.90;;;;;;5075374;28;20178;-74
2023/03/08 08:03:03;;;;;;;7.85;3.90;;;1.90;99.90;;;;;;5086093;28;20597;-74
2023/03/08 08:05:29;;;;;;;7.18;4.13;;;2.00;99.90;;;;;;5094698;28;20212;-73
2023/03/08 08:07:55;;;;;;;11.32;4.00;;;2.00;99.90;;;;;;5115824;27;20188;-80
2023/03/08 08:10:21;;;;;;;11.13;4.00;;;2.10;99.90;;;;;;5096690;28;20648;-76
2023/03/08 08:12:47;;;;;;;10.43;4.25;;;2.20;99.90;;;;;;5077087;28;20193;-73
2023/03/08 08:15:12;;;;;;;6.30;3.72;;;2.20;99.90;;;;;;5109638;28;20620;-74
2023/03/08 08:17:38;;;;;;;7.90;4.13;;;2.30;99.90;;;;;;5117821;27;20232;-74
2023/03/08 08:20:06;;;;;;;8.30;4.75;;;2.20;99.90;;;;;;5108100;28;20728;-73
2023/03/08 08:22:35;;;;;;;10.45;4.70;;;2.30;99.90;;;;;;5111837;28;20637;-73
2023/03/08 08:25:04;;;;;;;6.65;4.80;;;2.30;99.90;;;;;;5076375;28;20190;-73
2023/03/08 08:27:30;;;;;;;6.70;4.40;;;2.30;99.90;;;;;;5093000;28;20189;-78
2023/03/08 08:29:56;;;;;;;8.60;5.00;;;2.30;99.90;;;;;;5094626;28;20590;-73
2023/03/08 08:32:22;;;;;;;8.35;4.90;;;2.30;99.90;;;;;;5111454;28;20595;-77
2023/03/08 08:34:47;;;;;;;9.45;4.85;;;2.30;99.90;;;;;;5109112;28;20186;-73
2023/03/08 08:37:13;;;;;;;7.40;4.80;;;2.30;99.90;;;;;;5102041;28;20732;-74
2023/03/08 08:39:42;;;;;;;8.98;4.63;;;2.40;99.90;;;;;;5129282;27;20663;-73
2023/03/08 08:42:09;;;;;;;6.50;4.00;;;2.40;99.90;;;;;;5104650;28;20280;-72
2023/03/08 08:44:35;;;;;;;7.68;4.93;;;2.40;99.90;;;;;;5091093;28;20332;-73
2023/03/08 08:47:00;;;;;;;7.88;4.68;;;2.50;99.90;;;;;;5097751;28;20306;-72
2023/03/08 08:49:26;;;;;;;7.70;4.85;;;2.60;99.90;;;;;;5111439;28;20185;-72
2023/03/08 08:51:52;;;;;;;10.90;5.10;;;2.60;99.90;;;;;;5073913;28;20610;-73
2023/03/08 08:54:18;;;;;;;7.55;4.60;;;2.70;99.90;;;;;;5074213;28;20182;-72
2023/03/08 08:56:44;;;;;;;7.25;4.55;;;2.80;99.90;;;;;;5084518;28;20185;-74
2023/03/08 08:59:12;;;;;;;5.70;4.88;;;2.80;99.90;;;;;;5086728;28;20274;-71
2023/03/08 09:01:42;;;;;;;11.43;5.63;;;2.90;99.90;;;;;;5074620;28;20267;-73
2023/03/08 09:04:12;;;;;;;10.77;5.15;;;2.90;99.90;;;;;;5109256;28;20652;-72
2023/03/08 09:06:38;;;;;;;7.47;4.75;;;3.00;99.90;;;;;;5096224;28;20304;-73
2023/03/08 09:09:05;;;;;;;14.30;6.38;;;3.10;99.90;;;;;;5111552;28;20203;-76
2023/03/08 09:11:31;;;;;;;9.77;5.82;;;3.20;99.90;;;;;;5121777;28;20208;-73
2023/03/08 09:13:57;;;;;;;11.57;5.90;;;3.30;99.90;;;;;;5121355;28;20645;-72
2023/03/08 09:16:29;;;;;;;7.90;5.93;;;3.40;99.90;;;;;;5085557;28;20189;-75
2023/03/08 09:18:56;;;;;;;15.15;6.00;;;3.40;99.90;;;;;;5122164;28;20310;-73
2023/03/08 09:21:23;;;;;;;14.80;6.30;;;3.50;99.90;;;;;;5113315;28;20263;-77
2023/03/08 09:23:49;;;;;;;9.88;5.50;;;3.50;99.90;;;;;;5103906;28;20188;-73
2023/03/08 09:26:15;;;;;;;7.97;5.30;;;3.50;99.90;;;;;;5109692;28;20358;-73
2023/03/08 09:28:40;;;;;;;6.72;4.78;;;3.50;99.90;;;;;;5092242;28;20587;-74
2023/03/08 09:31:11;;;;;;;8.32;4.93;;;3.50;99.90;;;;;;5094281;28;20507;-73
2023/03/08 09:33:41;;;;;;;6.88;4.70;;;3.60;99.90;;;;;;5093089;28;20557;-73
2023/03/08 09:36:08;;;;;;;6.55;4.53;;;3.60;99.90;;;;;;5112454;28;20173;-73
2023/03/08 09:38:34;;;;;;;8.98;3.95;;;3.70;99.90;;;;;;5110564;28;20260;-74
2023/03/08 09:41:00;;;;;;;8.15;4.25;;;3.80;99.90;;;;;;5110127;28;20195;-73
2023/03/08 09:43:39;;;;;;;7.43;4.78;;;3.90;99.90;;;;;;5119587;28;20263;-72
2023/03/08 09:46:07;;;;;;;9.80;4.95;;;4.00;99.90;;;;;;5110898;28;20213;-73
2023/03/08 09:48:33;;;;;;;9.35;5.47;;;4.10;99.90;;;;;;5102168;28;20639;-72
2023/03/08 09:51:08;;;;;;;8.27;4.78;;;4.20;99.90;;;;;;5090245;28;20182;-74
2023/03/08 09:54:06;;;;;;;8.48;4.70;;;4.30;99.90;;;;;;5101151;28;20196;-73
2023/03/08 09:56:44;;;;;;;9.40;4.18;;;4.40;99.90;;;;;;5083178;28;20213;-74
2023/03/08 09:59:39;;;;;;;7.70;4.15;;;4.40;99.90;;;;;;5087993;28;20184;-74
2023/03/08 10:02:35;;;;;;;9.13;5.55;;;4.40;99.90;;;;;;5073936;28;20174;-72
2023/03/08 10:05:04;;;;;;;9.25;5.47;;;4.40;99.90;;;;;;5073565;28;20178;-73
2023/03/08 10:08:02;;;;;;;9.68;4.85;;;4.40;99.90;;;;;;5081458;28;20182;-73
2023/03/08 10:10:58;;;;;;;10.98;6.40;;;4.40;99.90;;;;;;5081466;28;20182;-74
2023/03/08 10:13:39;;;;;;;12.50;6.25;;;4.40;99.90;;;;;;5093502;28;20572;-73
2023/03/08 10:16:27;;;;;;;8.95;5.93;;;4.40;99.90;;;;;;5093620;28;20251;-72
2023/03/08 10:19:05;;;;;;;11.55;6.05;;;4.50;99.90;;;;;;5092556;28;20192;-73
2023/03/08 10:21:35;;;;;;;9.93;5.15;;;4.60;99.90;;;;;;5090578;28;20259;-74
2023/03/08 10:24:15;;;;;;;12.88;5.32;;;4.70;99.90;;;;;;5093227;28;20231;-72
2023/03/08 10:26:42;;;;;;;12.60;4.22;;;4.80;99.90;;;;;;5093246;28;20201;-73
2023/03/08 10:29:11;;;;;;;7.53;4.63;;;4.90;99.90;;;;;;5093196;28;20174;-72
2023/03/08 10:31:37;;;;;;;8.15;4.32;;;5.00;99.90;;;;;;5093305;28;20206;-73
2023/03/08 10:34:20;;;;;;;7.88;4.32;;;5.10;99.90;;;;;;5092158;28;20215;-73
2023/03/08 10:36:59;;;;;;;8.00;4.38;;;5.20;99.90;;;;;;5101925;28;20272;-72
2023/03/08 10:39:25;;;;;;;7.72;4.30;;;5.40;99.90;;;;;;5095521;28;20185;-74
2023/03/08 10:41:59;;;;;;;8.32;4.03;;;5.50;99.90;;;;;;5093037;28;20578;-74
2023/03/08 10:44:39;;;;;;;6.65;3.55;;;5.60;99.90;;;;;;5092893;28;20190;-74
2023/03/08 10:47:35;;;;;;;9.68;3.88;;;5.70;99.90;;;;;;5091653;28;20263;-77
2023/03/08 10:50:04;;;;;;;4.97;3.58;;;5.80;99.90;;;;;;5081891;28;20186;-73
2023/03/08 10:52:30;;;;;;;4.53;2.47;;;5.80;99.90;;;;;;5091388;28;20205;-73
2023/03/08 10:55:05;;;;;;;6.25;3.10;;;5.80;99.90;;;;;;5094128;28;20288;-74
2023/03/08 10:57:31;;;;;;;4.35;2.90;;;5.90;99.90;;;;;;5093605;28;20234;-76
2023/03/08 11:00:12;;;;;;;4.60;2.70;;;6.00;99.90;;;;;;5115964;27;20206;-75
2023/03/08 11:02:38;;;;;;;4.03;2.17;;;6.10;99.90;;;;;;5104180;28;20186;-73
2023/03/08 11:05:25;;;;;;;3.42;2.00;;;6.10;99.90;;;;;;5096018;28;20272;-73
2023/03/08 11:07:56;;;;;;;2.53;1.70;;;6.20;99.90;;;;;;5108054;28;20658;-73
2023/03/08 11:10:25;;;;;;;2.97;1.75;;;6.20;99.90;;;;;;5094216;28;20615;-72
2023/03/08 11:13:19;;;;;;;3.03;1.70;;;6.20;99.90;;;;;;5092033;28;20264;-74
2023/03/08 11:16:03;;;;;;;3.20;1.80;;;6.20;99.90;;;;;;5089284;28;20186;-74
2023/03/08 11:18:58;;;;;;;3.17;1.55;;;6.20;99.90;;;;;;5092214;28;20208;-73
2023/03/08 11:21:39;;;;;;;3.92;1.83;;;6.20;99.90;;;;;;5109202;28;20185;-74
2023/03/08 11:24:17;;;;;;;5.00;2.67;;;6.30;99.90;;;;;;5107426;28;20216;-74
2023/03/08 11:27:14;;;;;;;7.30;2.60;;;6.40;99.90;;;;;;5073546;28;20225;-73
2023/03/08 11:30:10;;;;;;;4.57;2.55;;;6.30;99.90;;;;;;5090004;28;20208;-73
2023/03/08 11:32:57;;;;;;;3.22;1.80;;;6.40;99.90;;;;;;5092593;28;20197;-72
2023/03/08 11:35:50;;;;;;;4.60;1.88;;;6.40;99.90;;;;;;5103283;28;20178;-73
2023/03/08 11:38:23;;;;;;;6.10;2.08;;;6.40;99.90;;;;;;5098896;28;20174;-73
2023/03/08 11:41:20;;;;;;;2.88;2.10;;;6.40;99.90;;;;;;5114138;28;20205;-73
2023/03/08 11:44:16;;;;;;;7.63;2.40;;;6.50;99.90;;;;;;5090174;28;20186;-73
2023/03/08 11:47:10;;;;;;;5.30;2.25;;;6.60;99.90;;;;;;5110591;28;20225;-73
2023/03/08 11:50:09;;;;;;;7.35;2.55;;;6.70;99.90;;;;;;5111850;28;20185;-73
2023/03/08 11:52:44;;;;;;;5.50;2.00;;;6.70;99.90;;;;;;5077420;28;20268;-74
2023/03/08 11:55:41;;;;;;;2.78;1.73;;;6.70;99.90;;;;;;5122930;27;20263;-75
2023/03/08 11:58:17;;;;;;;2.58;1.30;;;6.70;99.90;;;;;;5125793;27;20184;-74
2023/03/08 12:00:46;;;;;;;3.15;1.30;;;6.60;99.90;;;;;;5094076;28;20165;-75
2023/03/08 12:03:25;;;;;;;5.20;1.30;;;6.60;99.90;;;;;;5117865;27;20255;-74
2023/03/08 12:05:57;;;;;;;5.35;1.30;;;6.60;99.90;;;;;;5094100;28;20208;-75
2023/03/08 12:08:35;;;;;;;7.00;1.40;;;6.60;99.90;;;;;;5111637;28;20182;-74
2023/03/08 12:11:09;;;;;;;4.65;1.63;;;6.50;99.90;;;;;;5095460;28;20191;-74
2023/03/08 12:13:41;;;;;;;5.50;1.90;;;6.50;99.90;;;;;;5109418;28;20178;-73
2023/03/08 12:16:21;;;;;;;3.90;2.00;;;6.50;99.90;;;;;;5098426;27;20210;-73
2023/03/08 12:19:09;;;;;;;4.13;1.63;;;6.50;99.90;;;;;;5113077;27;20669;-74
2023/03/08 12:21:37;;;;;;;4.30;1.50;;;6.50;99.90;;;;;;5112319;27;20219;-73
2023/03/08 12:24:25;;;;;;;4.50;1.40;;;6.50;99.90;;;;;;5081474;28;20577;-73
2023/03/08 12:27:02;;;;;;;2.83;1.50;;;6.40;99.90;;;;;;5094508;28;20273;-73
2023/03/08 12:29:49;;;;;;;5.10;1.48;;;6.40;99.90;;;;;;5127734;27;20180;-75
2023/03/08 12:32:16;;;;;;;4.45;1.70;;;6.40;99.90;;;;;;5115703;27;20184;-75
2023/03/08 12:34:44;;;;;;;4.40;1.60;;;6.40;99.90;;;;;;5112016;27;20608;-73
2023/03/08 12:37:20;;;;;;;3.45;1.73;;;6.40;99.90;;;;;;5110777;28;20193;-75
2023/03/08 12:40:25;;;;;;;5.45;1.65;;;6.50;99.90;;;;;;5111848;28;20229;-73
2023/03/08 12:42:51;;;;;;;3.95;1.50;;;6.50;99.90;;;;;;5112707;27;20189;-73
2023/03/08 12:45:22;;;;;;;4.65;1.90;;;6.40;99.90;;;;;;5114383;27;20369;-73
2023/03/08 12:48:02;;;;;;;7.10;1.52;;;6.40;99.90;;;;;;5097077;28;20181;-73
2023/03/08 12:50:32;;;;;;;3.88;1.83;;;6.40;99.90;;;;;;5110938;28;20242;-75
2023/03/08 12:52:58;;;;;;;3.05;1.20;;;6.30;99.90;;;;;;5111849;28;20268;-75
2023/03/08 12:55:31;;;;;;;6.45;1.90;;;6.30;99.90;;;;;;5077410;28;20267;-74
2023/03/08 12:58:00;;;;;;;2.92;1.85;;;6.30;99.90;;;;;;5109298;28;20173;-73
2023/03/08 13:00:29;;;;;;;6.90;1.77;;;6.30;99.90;;;;;;5094318;28;20173;-73
2023/03/08 13:03:11;;;;;;;3.45;1.63;;;6.30;99.90;;;;;;5115695;28;20230;-73
2023/03/08 13:05:38;;;;;;;4.10;1.70;;;6.30;99.90;;;;;;5095201;28;20207;-73
2023/03/08 13:08:35;;;;;;;2.10;1.40;;;6.30;99.90;;;;;;5097388;28;20205;-76
2023/03/08 13:11:13;;;;;;;5.00;1.55;;;6.40;99.90;;;;;;5073620;28;20197;-74
2023/03/08 13:13:51;;;;;;;3.92;1.30;;;6.30;99.90;;;;;;5102935;28;20177;-72